createdAt,value
2022-10-17T00:00:44.899Z,7.13
2022-10-17T00:03:11.581Z,1.90
2022-10-17T00:05:42.557Z,4.32
2022-10-17T00:08:09.937Z,5.38
2022-10-17T00:10:36.641Z,6.57
2022-10-17T00:13:03.851Z,5.60
2022-10-17T00:15:30.422Z,10.23
2022-10-17T00:17:57.053Z,9.07
2022-10-17T00:20:23.677Z,15.32
2022-10-17T00:22:50.432Z,9.70
2022-10-17T00:25:17.474Z,6.60
2022-10-17T00:27:44.355Z,7.57
2022-10-17T00:30:13.035Z,6.82
2022-10-17T00:32:39.806Z,9.57
2022-10-17T00:35:07.034Z,5.07
2022-10-17T00:37:33.849Z,11.98
2022-10-17T00:40:00.509Z,11.45
2022-10-17T00:42:27.586Z,6.35
2022-10-17T00:44:59.507Z,2.92
2022-10-17T00:47:26.326Z,3.58
2022-10-17T00:49:52.994Z,7.28
2022-10-17T00:52:24.797Z,10.63
2022-10-17T00:54:56.288Z,9.20
2022-10-17T00:57:22.957Z,8.27
2022-10-17T00:59:52.116Z,12.70
2022-10-17T01:02:20.066Z,5.82
2022-10-17T01:04:48.703Z,6.03
2022-10-17T01:07:15.459Z,5.70
2022-10-17T01:09:43.170Z,5.78
2022-10-17T01:12:18.764Z,8.23
2022-10-17T01:15:08.775Z,6.35
2022-10-17T01:17:40.572Z,9.27
2022-10-17T01:20:22.628Z,4.00
2022-10-17T01:22:49.172Z,12.95
2022-10-17T01:25:39.083Z,7.53
2022-10-17T01:28:24.547Z,6.25
2022-10-17T01:30:58.065Z,4.93
2022-10-17T01:33:32.089Z,9.32
2022-10-17T01:36:04.801Z,9.45
2022-10-17T01:38:40.394Z,14.48
2022-10-17T01:41:12.631Z,12.80
2022-10-17T01:43:41.493Z,13.90
2022-10-17T01:46:28.757Z,18.35
2022-10-17T01:48:57.250Z,12.43
2022-10-17T01:51:37.659Z,21.50
2022-10-17T01:54:22.665Z,13.20
2022-10-17T01:56:51.638Z,13.27
2022-10-17T01:59:26.289Z,10.60
2022-10-17T02:01:54.167Z,18.13
2022-10-17T02:04:22.346Z,18.85
2022-10-17T02:06:49.017Z,14.20
2022-10-17T02:09:22.930Z,14.38
2022-10-17T02:11:52.927Z,6.75
2022-10-17T02:14:33.477Z,16.55
2022-10-17T02:17:15.910Z,24.15
2022-10-17T02:19:46.631Z,10.20
2022-10-17T02:22:27.863Z,22.23
2022-10-17T02:24:59.240Z,37.40
2022-10-17T02:27:26.284Z,23.52
2022-10-17T02:30:13.775Z,21.17
2022-10-17T02:32:48.000Z,10.98
2022-10-17T02:35:21.525Z,45.15
2022-10-17T02:37:48.821Z,32.45
2022-10-17T02:40:17.098Z,18.73
2022-10-17T02:42:45.072Z,20.95
2022-10-17T02:45:12.916Z,32.17
2022-10-17T02:47:59.737Z,43.83
2022-10-17T02:50:31.929Z,76.88
2022-10-17T02:53:01.680Z,57.78
2022-10-17T02:55:36.465Z,37.75
2022-10-17T02:58:06.760Z,32.33
2022-10-17T03:00:38.935Z,44.03
2022-10-17T03:03:18.545Z,27.60
2022-10-17T03:05:45.171Z,17.73
2022-10-17T03:08:11.834Z,26.00
2022-10-17T03:10:38.580Z,20.30
2022-10-17T03:13:05.730Z,10.02
2022-10-17T03:15:36.616Z,14.15
2022-10-17T03:18:03.370Z,11.23
2022-10-17T03:20:30.047Z,19.05
2022-10-17T03:22:56.654Z,8.48
2022-10-17T03:25:23.295Z,19.15
2022-10-17T03:27:50.467Z,15.63
2022-10-17T03:30:17.104Z,45.72
2022-10-17T03:32:43.727Z,9.13
2022-10-17T03:35:14.856Z,2.08
2022-10-17T03:37:44.943Z,2.33
2022-10-17T03:40:11.648Z,5.43
2022-10-17T03:42:38.290Z,4.40
2022-10-17T03:45:05.142Z,3.72
2022-10-17T03:47:31.869Z,15.25
2022-10-17T03:49:59.123Z,27.70
2022-10-17T03:52:25.788Z,42.03
2022-10-17T03:54:52.424Z,18.92
2022-10-17T03:57:19.458Z,26.20
2022-10-17T03:59:46.382Z,21.60
2022-10-17T04:02:16.987Z,33.97
2022-10-17T04:04:43.947Z,17.92
2022-10-17T04:07:10.555Z,26.42
2022-10-17T04:09:40.785Z,18.27
2022-10-17T04:12:17.596Z,7.43
2022-10-17T04:14:44.258Z,16.42
2022-10-17T04:17:10.880Z,15.20
2022-10-17T04:19:39.993Z,23.50
2022-10-17T04:22:08.565Z,19.42
2022-10-17T04:24:37.511Z,31.45
2022-10-17T04:27:07.607Z,13.23
2022-10-17T04:29:37.601Z,10.05
2022-10-17T04:32:15.143Z,9.13
2022-10-17T04:34:58.638Z,6.13
2022-10-17T04:37:28.929Z,19.17
2022-10-17T04:39:55.744Z,10.52
2022-10-17T04:42:22.270Z,21.20
2022-10-17T04:44:51.251Z,27.67
2022-10-17T04:47:18.465Z,28.52
2022-10-17T04:49:46.179Z,36.67
2022-10-17T04:52:15.116Z,25.30
2022-10-17T04:54:47.754Z,34.15
2022-10-17T04:57:14.696Z,42.38
2022-10-17T04:59:46.415Z,21.58
2022-10-17T05:02:27.497Z,32.17
2022-10-17T05:04:55.039Z,48.42
2022-10-17T05:07:21.661Z,30.42
2022-10-17T05:09:58.824Z,17.25
2022-10-17T05:12:25.619Z,10.85
2022-10-17T05:14:53.436Z,22.20
2022-10-17T05:17:21.000Z,74.13
2022-10-17T05:19:47.611Z,33.20
2022-10-17T05:22:14.392Z,36.70
2022-10-17T05:24:41.809Z,42.78
2022-10-17T05:27:09.305Z,70.22
2022-10-17T05:29:35.917Z,77.72
2022-10-17T05:32:25.279Z,50.08
2022-10-17T05:34:51.918Z,8.80
2022-10-17T05:37:20.206Z,12.27
2022-10-17T05:39:51.593Z,6.47
2022-10-17T05:42:19.317Z,9.15
2022-10-17T05:44:46.865Z,17.88
2022-10-17T05:47:15.663Z,7.63
2022-10-17T05:49:49.781Z,13.48
2022-10-17T05:52:21.420Z,13.45
2022-10-17T05:55:02.295Z,11.45
2022-10-17T05:57:28.915Z,15.52
2022-10-17T05:59:56.282Z,13.70
2022-10-17T06:02:23.165Z,48.42
2022-10-17T06:04:50.385Z,18.30
2022-10-17T06:07:19.312Z,23.02
2022-10-17T06:09:47.366Z,28.95
2022-10-17T06:12:14.616Z,19.92
2022-10-17T06:14:41.398Z,29.63
2022-10-17T06:17:12.090Z,40.45
2022-10-17T06:19:42.041Z,45.47
2022-10-17T06:22:08.661Z,27.33
2022-10-17T06:24:35.914Z,18.58
2022-10-17T06:27:09.392Z,24.02
2022-10-17T06:29:39.414Z,21.95
2022-10-17T06:32:08.659Z,17.90
2022-10-17T06:34:38.437Z,31.83
2022-10-17T06:37:05.203Z,31.52
2022-10-17T06:39:34.549Z,18.83
2022-10-17T06:42:05.861Z,33.00
2022-10-17T06:44:58.778Z,30.77
2022-10-17T06:47:51.650Z,63.58
2022-10-17T06:50:40.608Z,51.33
2022-10-17T06:53:20.415Z,48.70
2022-10-17T06:56:10.453Z,44.55
2022-10-17T06:59:06.164Z,32.20
2022-10-17T07:01:37.395Z,36.22
2022-10-17T07:04:04.772Z,35.83
2022-10-17T07:06:31.805Z,42.78
2022-10-17T07:09:06.710Z,55.13
2022-10-17T07:11:35.945Z,44.80
2022-10-17T07:14:02.675Z,47.80
2022-10-17T07:16:29.383Z,16.17
2022-10-17T07:19:05.765Z,42.78
2022-10-17T07:21:38.995Z,34.78
2022-10-17T07:24:10.307Z,17.27
2022-10-17T07:26:38.202Z,41.88
2022-10-17T07:29:06.486Z,29.58
2022-10-17T07:31:52.087Z,28.08
2022-10-17T07:34:19.177Z,39.47
2022-10-17T07:36:46.291Z,24.15
2022-10-17T07:39:14.533Z,39.13
2022-10-17T07:41:41.241Z,30.70
2022-10-17T07:44:08.139Z,31.55
2022-10-17T07:46:41.136Z,41.28
2022-10-17T07:49:07.822Z,28.92
2022-10-17T07:51:34.517Z,59.13
2022-10-17T07:54:01.454Z,41.97
2022-10-17T07:56:29.653Z,46.42
2022-10-17T08:01:28.561Z,26.40
2022-10-17T08:03:55.181Z,13.38
2022-10-17T08:06:21.763Z,28.38
2022-10-17T08:08:48.366Z,43.95
2022-10-17T08:11:15.236Z,18.58
2022-10-17T08:13:42.599Z,41.20
2022-10-17T08:16:11.597Z,26.85
2022-10-17T08:18:39.095Z,16.98
2022-10-17T08:21:09.263Z,62.55
2022-10-17T08:23:36.382Z,36.97
2022-10-17T08:26:04.194Z,34.70
2022-10-17T08:28:30.872Z,32.65
2022-10-17T08:31:07.329Z,15.90
2022-10-17T08:33:34.251Z,25.70
2022-10-17T08:36:01.579Z,28.88
2022-10-17T08:38:35.060Z,34.22
2022-10-17T08:41:07.861Z,32.05
2022-10-17T08:43:37.505Z,55.92
2022-10-17T08:46:06.491Z,40.08
2022-10-17T08:48:34.944Z,32.92
2022-10-17T08:51:04.741Z,33.28
2022-10-17T08:53:35.135Z,28.40
2022-10-17T08:56:07.232Z,23.35
2022-10-17T08:58:36.521Z,26.27
2022-10-17T09:01:24.025Z,33.35
2022-10-17T09:03:50.602Z,51.35
2022-10-17T09:06:30.040Z,112.38
2022-10-17T09:09:02.940Z,54.08
2022-10-17T09:11:35.517Z,58.95
2022-10-17T09:14:04.882Z,55.90
2022-10-17T09:16:34.655Z,64.93
2022-10-17T09:19:04.491Z,79.25
2022-10-17T09:21:45.691Z,61.90
2022-10-17T09:24:16.370Z,58.22
2022-10-17T09:26:44.496Z,70.65
2022-10-17T09:29:16.004Z,90.45
2022-10-17T09:31:45.329Z,42.55
2022-10-17T09:34:12.044Z,37.85
2022-10-17T09:36:39.712Z,35.70
2022-10-17T09:39:12.360Z,63.22
2022-10-17T09:44:35.234Z,44.38
2022-10-17T09:47:01.895Z,50.78
2022-10-17T09:49:33.039Z,44.28
2022-10-17T09:52:00.797Z,49.88
2022-10-17T09:54:32.407Z,55.28
2022-10-17T09:57:06.898Z,57.05
2022-10-17T09:59:40.970Z,36.75
2022-10-17T10:02:09.486Z,53.05
2022-10-17T10:04:41.568Z,68.38
2022-10-17T10:07:28.290Z,34.35
2022-10-17T10:09:56.224Z,63.80
2022-10-17T10:12:27.294Z,80.88
2022-10-17T10:14:55.433Z,50.38
2022-10-17T10:17:44.175Z,28.15
2022-10-17T10:20:29.628Z,49.10
2022-10-17T10:23:14.263Z,59.35
2022-10-17T10:25:57.938Z,24.02
2022-10-17T10:28:26.969Z,32.42
2022-10-17T10:30:54.366Z,22.17
2022-10-17T10:33:22.167Z,29.70
2022-10-17T10:35:53.481Z,36.08
2022-10-17T10:38:20.884Z,22.25
2022-10-17T10:40:49.271Z,33.22
2022-10-17T10:43:34.521Z,14.25
2022-10-17T10:46:02.293Z,11.30
2022-10-17T10:48:34.278Z,11.50
2022-10-17T10:51:17.192Z,10.23
2022-10-17T10:53:47.422Z,7.78
2022-10-17T10:56:30.084Z,8.18
2022-10-17T10:59:04.849Z,7.10
2022-10-17T11:01:39.606Z,9.20
2022-10-17T11:04:12.162Z,7.88
2022-10-17T11:06:41.408Z,8.07
2022-10-17T11:09:30.036Z,6.25
2022-10-17T11:12:02.661Z,6.65
2022-10-17T11:14:29.220Z,9.05
2022-10-17T11:17:14.755Z,6.68
2022-10-17T11:19:45.146Z,9.07
2022-10-17T11:22:29.262Z,8.88
2022-10-17T11:25:01.277Z,9.40
2022-10-17T11:27:29.442Z,9.50
2022-10-17T11:29:56.316Z,8.82
2022-10-17T11:32:26.160Z,10.65
2022-10-17T11:35:13.172Z,8.05
2022-10-17T11:37:41.640Z,12.38
2022-10-17T11:40:17.211Z,10.93
2022-10-17T11:42:51.922Z,11.15
2022-10-17T11:45:22.031Z,11.65
2022-10-17T11:47:54.310Z,9.20
2022-10-17T11:53:21.806Z,13.18
2022-10-17T11:55:49.105Z,12.82
2022-10-17T12:01:08.181Z,10.15
2022-10-17T12:03:49.841Z,14.85
2022-10-17T12:06:27.096Z,12.35
2022-10-17T12:09:08.307Z,13.32
2022-10-17T12:11:37.926Z,11.18
2022-10-17T12:14:24.467Z,11.57
2022-10-17T12:16:51.133Z,7.68
2022-10-17T12:19:23.201Z,11.30
2022-10-17T12:22:04.025Z,10.73
2022-10-17T12:24:41.781Z,8.02
2022-10-17T12:27:27.666Z,10.95
2022-10-17T12:30:01.728Z,11.07
2022-10-17T12:32:36.830Z,15.23
2022-10-17T12:35:20.297Z,10.32
2022-10-17T12:37:49.664Z,6.28
2022-10-17T12:40:34.941Z,6.88
2022-10-17T12:43:13.691Z,6.70
2022-10-17T12:45:49.280Z,9.82
2022-10-17T12:48:36.159Z,9.13
2022-10-17T12:53:59.872Z,8.40
2022-10-17T12:56:42.798Z,7.43
2022-10-17T12:59:14.670Z,12.85
2022-10-17T13:01:43.732Z,7.60
2022-10-17T13:04:10.818Z,8.15
2022-10-17T13:06:40.418Z,4.45
2022-10-17T13:09:16.290Z,4.93
2022-10-17T13:11:43.213Z,9.48
2022-10-17T13:14:14.703Z,5.28
2022-10-17T13:16:51.252Z,6.57
2022-10-17T13:19:19.209Z,6.75
2022-10-17T13:21:56.016Z,5.13
2022-10-17T13:24:23.702Z,14.55
2022-10-17T13:26:50.344Z,4.95
2022-10-17T13:29:18.016Z,6.38
2022-10-17T13:31:44.827Z,9.40
2022-10-17T13:34:25.228Z,9.82
2022-10-17T13:36:53.703Z,6.03
2022-10-17T13:39:32.689Z,5.55
2022-10-17T13:42:36.005Z,9.90
2022-10-17T13:45:02.699Z,8.07
2022-10-17T13:47:30.760Z,6.10
2022-10-17T13:49:58.339Z,4.00
2022-10-17T13:52:27.106Z,9.70
2022-10-17T13:54:54.084Z,6.15
2022-10-17T13:57:24.794Z,5.80
2022-10-17T13:59:55.633Z,5.78
2022-10-17T14:02:29.565Z,4.85
2022-10-17T14:05:29.977Z,4.43
2022-10-17T14:08:09.955Z,4.32
2022-10-17T14:10:35.303Z,4.57
2022-10-17T14:13:04.299Z,4.88
2022-10-17T14:15:31.906Z,7.43
2022-10-17T14:18:04.219Z,7.93
2022-10-17T14:21:19.427Z,5.15
2022-10-17T14:23:31.196Z,3.75
2022-10-17T14:26:08.813Z,4.53
2022-10-17T14:28:35.811Z,3.83
2022-10-17T14:31:10.454Z,7.22
2022-10-17T14:33:39.903Z,7.78
2022-10-17T14:36:09.285Z,6.93
2022-10-17T14:38:36.398Z,8.27
2022-10-17T14:41:37.732Z,6.60
2022-10-17T14:44:04.821Z,5.72
2022-10-17T14:46:31.428Z,6.13
2022-10-17T14:49:08.447Z,5.40
2022-10-17T14:51:44.836Z,6.30
2022-10-17T14:54:21.805Z,10.93
2022-10-17T14:56:52.746Z,4.43
2022-10-17T14:59:51.450Z,5.05
2022-10-17T15:02:09.352Z,3.55
2022-10-17T15:04:35.974Z,6.18
2022-10-17T15:07:02.616Z,7.18
2022-10-17T15:09:29.386Z,6.32
2022-10-17T15:11:59.743Z,6.40
2022-10-17T15:14:26.399Z,7.70
2022-10-17T15:16:52.979Z,9.98
2022-10-17T15:19:21.561Z,9.35
2022-10-17T15:21:48.108Z,11.20
2022-10-17T15:24:15.856Z,6.88
2022-10-17T15:26:42.692Z,5.50
2022-10-17T15:29:14.140Z,5.75
2022-10-17T15:31:41.594Z,7.22
2022-10-17T15:34:08.214Z,4.90
2022-10-17T15:36:39.024Z,10.80
2022-10-17T15:39:05.688Z,4.60
2022-10-17T15:41:33.141Z,10.90
2022-10-17T15:44:00.299Z,7.32
2022-10-17T15:46:32.707Z,7.78
2022-10-17T15:49:03.994Z,15.05
2022-10-17T15:51:30.621Z,10.20
2022-10-17T15:53:57.252Z,10.48
2022-10-17T15:56:26.412Z,6.38
2022-10-17T15:58:53.054Z,8.30
2022-10-17T16:01:22.329Z,8.02
2022-10-17T16:03:50.499Z,8.80
2022-10-17T16:06:18.515Z,14.63
2022-10-17T16:08:46.301Z,16.65
2022-10-17T16:11:28.103Z,6.03
2022-10-17T16:13:56.094Z,7.03
2022-10-17T16:16:22.881Z,10.80
2022-10-17T16:18:49.449Z,5.85
2022-10-17T16:21:16.993Z,20.40
2022-10-17T16:23:44.186Z,6.03
2022-10-17T16:26:14.029Z,5.97
2022-10-17T16:28:45.993Z,8.38
2022-10-17T16:31:19.528Z,8.75
2022-10-17T16:33:46.697Z,7.22
2022-10-17T16:36:13.270Z,10.30
2022-10-17T16:38:39.961Z,5.60
2022-10-17T16:41:21.420Z,9.88
2022-10-17T16:43:51.910Z,9.35
2022-10-17T16:46:18.968Z,7.93
2022-10-17T16:48:45.837Z,9.65
2022-10-17T16:51:12.973Z,9.93
2022-10-17T16:53:43.599Z,3.38
2022-10-17T16:56:14.414Z,7.20
2022-10-17T16:58:41.768Z,10.93
2022-10-17T17:01:13.307Z,6.63
2022-10-17T17:03:41.113Z,6.78
2022-10-17T17:06:08.279Z,9.93
2022-10-17T17:08:37.141Z,11.57
2022-10-17T17:11:07.108Z,10.23
2022-10-17T17:13:33.750Z,4.18
2022-10-17T17:16:04.682Z,9.63
2022-10-17T17:18:31.706Z,10.63
2022-10-17T17:20:59.670Z,10.50
2022-10-17T17:23:26.356Z,12.60
2022-10-17T17:25:59.757Z,6.65
2022-10-17T17:28:26.805Z,9.45
2022-10-17T17:30:53.744Z,7.72
2022-10-17T17:33:20.742Z,8.63
2022-10-17T17:35:47.361Z,6.65
2022-10-17T17:38:14.326Z,5.22
2022-10-17T17:40:49.635Z,15.00
2022-10-17T17:43:17.837Z,12.75
2022-10-17T17:45:44.401Z,7.28
2022-10-17T17:48:12.234Z,6.57
2022-10-17T17:50:39.766Z,6.88
2022-10-17T17:53:07.041Z,8.73
2022-10-17T17:55:34.003Z,8.88
2022-10-17T17:58:00.602Z,5.85
2022-10-17T18:00:27.732Z,3.85
2022-10-17T18:02:54.436Z,9.00
2022-10-17T18:05:21.028Z,13.23
2022-10-17T18:07:47.860Z,11.65
2022-10-17T18:12:42.323Z,11.98
2022-10-17T18:15:09.069Z,14.20
2022-10-17T18:17:35.748Z,7.10
2022-10-17T18:20:03.481Z,11.73
2022-10-17T18:22:30.319Z,13.10
2022-10-17T18:24:57.290Z,5.32
2022-10-17T18:27:25.796Z,7.40
2022-10-17T18:29:52.472Z,8.05
2022-10-17T18:32:19.077Z,8.32
2022-10-17T18:34:45.632Z,13.25
2022-10-17T18:37:12.332Z,11.48
2022-10-17T18:39:38.977Z,5.53
2022-10-17T18:42:05.564Z,17.15
2022-10-17T18:44:32.175Z,5.85
2022-10-17T18:47:03.004Z,5.88
2022-10-17T18:49:31.082Z,6.78
2022-10-17T18:51:57.715Z,8.15
2022-10-17T18:54:24.512Z,8.57
2022-10-17T18:56:51.912Z,16.25
2022-10-17T18:59:18.984Z,9.00
2022-10-17T19:01:45.745Z,6.07
2022-10-17T19:04:12.453Z,9.80
2022-10-17T19:06:39.475Z,7.18
2022-10-17T19:09:06.930Z,6.07
2022-10-17T19:11:34.578Z,6.35
2022-10-17T19:14:04.046Z,8.63
2022-10-17T19:16:37.459Z,6.88
2022-10-17T19:19:12.079Z,9.52
2022-10-17T19:21:39.291Z,12.00
2022-10-17T19:24:07.183Z,7.70
2022-10-17T19:26:35.633Z,9.40
2022-10-17T19:29:02.763Z,10.85
2022-10-17T19:31:31.542Z,10.20
2022-10-17T19:33:58.560Z,13.00
2022-10-17T19:36:30.469Z,9.27
2022-10-17T19:39:01.542Z,13.77
2022-10-17T19:41:28.352Z,9.32
2022-10-17T19:43:55.283Z,9.82
2022-10-17T19:46:23.987Z,7.72
2022-10-17T19:48:50.812Z,6.25
2022-10-17T19:51:18.466Z,4.88
2022-10-17T19:53:45.651Z,6.10
2022-10-17T19:56:12.272Z,9.10
2022-10-17T19:58:46.476Z,16.75
2022-10-17T20:01:14.804Z,7.18
2022-10-17T20:03:41.564Z,14.77
2022-10-17T20:06:08.428Z,16.35
2022-10-17T20:08:35.390Z,14.07
2022-10-17T20:11:02.828Z,13.23
2022-10-17T20:13:29.444Z,7.35
2022-10-17T20:15:57.024Z,7.28
2022-10-17T20:18:23.772Z,11.63
2022-10-17T20:20:50.481Z,7.03
2022-10-17T20:23:17.086Z,17.42
2022-10-17T20:25:44.125Z,4.78
2022-10-17T20:28:10.808Z,10.25
2022-10-17T20:30:37.463Z,5.45
2022-10-17T20:33:04.117Z,8.70
2022-10-17T20:35:30.723Z,8.65
2022-10-17T20:37:57.304Z,9.80
2022-10-17T20:40:34.767Z,5.88
2022-10-17T20:43:02.067Z,4.50
2022-10-17T20:45:43.673Z,7.97
2022-10-17T20:48:15.670Z,10.98
2022-10-17T20:50:42.933Z,14.10
2022-10-17T20:53:34.951Z,10.27
2022-10-17T20:56:03.189Z,10.68
2022-10-17T20:58:29.893Z,12.65
2022-10-17T21:00:56.438Z,8.82
2022-10-17T21:03:23.157Z,12.48
2022-10-17T21:05:49.771Z,9.18
2022-10-17T21:08:16.362Z,4.15
2022-10-17T21:10:42.956Z,11.77
2022-10-17T21:13:09.678Z,5.35
2022-10-17T21:15:36.295Z,8.75
2022-10-17T21:18:02.976Z,10.98
2022-10-17T21:20:29.645Z,12.00
2022-10-17T21:22:57.349Z,12.85
2022-10-17T21:25:23.916Z,8.63
2022-10-17T21:27:51.980Z,7.07
2022-10-17T21:30:19.810Z,9.70
2022-10-17T21:32:51.363Z,4.35
2022-10-17T21:35:18.544Z,15.45
2022-10-17T21:37:45.146Z,8.68
2022-10-17T21:40:12.125Z,13.10
2022-10-17T21:42:38.826Z,18.73
2022-10-17T21:45:10.770Z,30.70
2022-10-17T21:47:54.863Z,11.20
2022-10-17T21:50:27.800Z,12.05
2022-10-17T21:52:54.421Z,14.00
2022-10-17T21:55:21.049Z,17.40
2022-10-17T21:57:47.706Z,12.20
2022-10-17T22:00:14.468Z,10.00
2022-10-17T22:02:41.712Z,15.15
2022-10-17T22:05:08.602Z,14.40
2022-10-17T22:07:35.257Z,10.07
2022-10-17T22:10:02.678Z,14.23
2022-10-17T22:12:29.618Z,10.98
2022-10-17T22:14:56.482Z,8.05
2022-10-17T22:17:23.219Z,14.88
2022-10-17T22:19:49.773Z,15.55
2022-10-17T22:22:16.339Z,7.70
2022-10-17T22:24:42.943Z,12.20
2022-10-17T22:27:12.370Z,6.80
2022-10-17T22:29:39.733Z,17.75
2022-10-17T22:32:06.329Z,5.13
2022-10-17T22:34:32.917Z,9.25
2022-10-17T22:36:59.537Z,7.38
2022-10-17T22:39:26.113Z,7.32
2022-10-17T22:41:52.719Z,10.57
2022-10-17T22:44:19.255Z,12.75
2022-10-17T22:46:45.823Z,8.10
2022-10-17T22:49:12.543Z,18.20
2022-10-17T22:51:39.133Z,11.05
2022-10-17T22:54:06.040Z,9.63
2022-10-17T22:56:32.692Z,12.88
2022-10-17T22:58:59.347Z,5.90
2022-10-17T23:01:25.965Z,6.20
2022-10-17T23:03:52.854Z,8.95
2022-10-17T23:06:20.120Z,9.05
2022-10-17T23:08:47.115Z,8.32
2022-10-17T23:11:13.790Z,6.47
2022-10-17T23:13:40.993Z,10.60
2022-10-17T23:16:08.069Z,15.43
2022-10-17T23:18:34.974Z,9.20
2022-10-17T23:21:01.610Z,10.90
2022-10-17T23:23:28.201Z,7.47
2022-10-17T23:25:54.890Z,10.18
2022-10-17T23:28:21.510Z,8.43
2022-10-17T23:30:48.162Z,9.85
2022-10-17T23:33:14.805Z,7.00
2022-10-17T23:35:41.452Z,9.45
2022-10-17T23:38:08.258Z,7.90
2022-10-17T23:40:35.387Z,9.38
2022-10-17T23:43:02.757Z,7.13
2022-10-17T23:45:31.311Z,7.88
2022-10-17T23:48:00.142Z,11.35
2022-10-17T23:50:26.762Z,11.27
2022-10-17T23:52:53.361Z,9.85
2022-10-17T23:55:20.015Z,4.95
2022-10-17T23:57:46.589Z,12.43
